sensor_id;sensor_type;location;lat;lon;timestamp;P1;durP1;ratioP1;P2;durP2;ratioP2
549;SDS011;20066;48.764;9.176;2022-08-25T00:00:16;4.90;;;3.30;;
549;SDS011;20066;48.764;9.176;2022-08-25T00:02:44;4.40;;;3.10;;
549;SDS011;20066;48.764;9.176;2022-08-25T00:05:23;4.47;;;3.10;;
549;SDS011;20066;48.764;9.176;2022-08-25T00:07:57;7.00;;;3.60;;
549;SDS011;20066;48.764;9.176;2022-08-25T00:10:25;6.27;;;3.87;;
549;SDS011;20066;48.764;9.176;2022-08-25T00:12:53;6.67;;;3.77;;
549;SDS011;20066;48.764;9.176;2022-08-25T00:15:22;8.87;;;4.20;;
549;SDS011;20066;48.764;9.176;2022-08-25T00:17:51;5.83;;;4.00;;
549;SDS011;20066;48.764;9.176;2022-08-25T00:20:18;7.43;;;3.77;;
549;SDS011;20066;48.764;9.176;2022-08-25T00:22:47;5.73;;;3.60;;
549;SDS011;20066;48.764;9.176;2022-08-25T00:25:16;6.10;;;3.63;;
549;SDS011;20066;48.764;9.176;2022-08-25T00:27:44;5.63;;;3.60;;
549;SDS011;20066;48.764;9.176;2022-08-25T00:30:14;5.30;;;3.60;;
549;SDS011;20066;48.764;9.176;2022-08-25T00:32:44;6.90;;;4.20;;
549;SDS011;20066;48.764;9.176;2022-08-25T00:35:23;5.90;;;3.53;;
549;SDS011;20066;48.764;9.176;2022-08-25T00:37:52;4.97;;;3.63;;
549;SDS011;20066;48.764;9.176;2022-08-25T00:40:21;5.80;;;3.80;;
549;SDS011;20066;48.764;9.176;2022-08-25T00:42:50;5.63;;;3.50;;
549;SDS011;20066;48.764;9.176;2022-08-25T00:45:18;7.37;;;4.40;;
549;SDS011;20066;48.764;9.176;2022-08-25T00:47:48;6.53;;;3.60;;
549;SDS011;20066;48.764;9.176;2022-08-25T00:50:16;12.70;;;4.00;;
549;SDS011;20066;48.764;9.176;2022-08-25T00:52:45;6.17;;;3.73;;
549;SDS011;20066;48.764;9.176;2022-08-25T00:55:18;8.60;;;4.10;;
549;SDS011;20066;48.764;9.176;2022-08-25T00:57:51;7.73;;;3.93;;
549;SDS011;20066;48.764;9.176;2022-08-25T01:00:24;6.20;;;4.30;;
549;SDS011;20066;48.764;9.176;2022-08-25T01:02:56;8.17;;;4.23;;
549;SDS011;20066;48.764;9.176;2022-08-25T01:05:25;6.97;;;4.10;;
549;SDS011;20066;48.764;9.176;2022-08-25T01:07:55;8.50;;;3.53;;
549;SDS011;20066;48.764;9.176;2022-08-25T01:10:25;5.97;;;4.10;;
549;SDS011;20066;48.764;9.176;2022-08-25T01:12:59;6.67;;;3.40;;
549;SDS011;20066;48.764;9.176;2022-08-25T01:15:39;6.47;;;3.60;;
549;SDS011;20066;48.764;9.176;2022-08-25T01:18:08;5.20;;;3.67;;
549;SDS011;20066;48.764;9.176;2022-08-25T01:20:37;8.00;;;3.90;;
549;SDS011;20066;48.764;9.176;2022-08-25T01:23:06;7.70;;;3.90;;
549;SDS011;20066;48.764;9.176;2022-08-25T01:25:40;5.93;;;4.00;;
549;SDS011;20066;48.764;9.176;2022-08-25T01:28:15;5.90;;;3.97;;
549;SDS011;20066;48.764;9.176;2022-08-25T01:30:44;5.50;;;3.70;;
549;SDS011;20066;48.764;9.176;2022-08-25T01:33:12;5.50;;;3.80;;
549;SDS011;20066;48.764;9.176;2022-08-25T01:35:42;9.60;;;4.03;;
549;SDS011;20066;48.764;9.176;2022-08-25T01:38:12;6.10;;;3.77;;
549;SDS011;20066;48.764;9.176;2022-08-25T01:40:40;5.90;;;3.60;;
549;SDS011;20066;48.764;9.176;2022-08-25T01:43:11;6.30;;;4.23;;
549;SDS011;20066;48.764;9.176;2022-08-25T01:45:47;5.87;;;4.30;;
549;SDS011;20066;48.764;9.176;2022-08-25T01:48:15;6.87;;;4.07;;
549;SDS011;20066;48.764;9.176;2022-08-25T01:50:44;5.30;;;3.73;;
549;SDS011;20066;48.764;9.176;2022-08-25T01:53:18;6.70;;;4.57;;
549;SDS011;20066;48.764;9.176;2022-08-25T01:55:49;7.50;;;4.30;;
549;SDS011;20066;48.764;9.176;2022-08-25T01:58:28;6.40;;;4.20;;
549;SDS011;20066;48.764;9.176;2022-08-25T02:00:58;9.00;;;4.27;;
549;SDS011;20066;48.764;9.176;2022-08-25T02:03:28;7.30;;;4.40;;
549;SDS011;20066;48.764;9.176;2022-08-25T02:05:58;8.33;;;4.17;;
549;SDS011;20066;48.764;9.176;2022-08-25T02:08:30;6.20;;;4.40;;
549;SDS011;20066;48.764;9.176;2022-08-25T02:10:59;5.20;;;3.70;;
549;SDS011;20066;48.764;9.176;2022-08-25T02:13:26;5.37;;;3.90;;
549;SDS011;20066;48.764;9.176;2022-08-25T02:15:57;7.83;;;4.07;;
549;SDS011;20066;48.764;9.176;2022-08-25T02:18:27;8.40;;;4.13;;
549;SDS011;20066;48.764;9.176;2022-08-25T02:20:55;5.40;;;3.60;;
549;SDS011;20066;48.764;9.176;2022-08-25T02:23:23;6.90;;;4.70;;
549;SDS011;20066;48.764;9.176;2022-08-25T02:25:53;6.87;;;4.47;;
549;SDS011;20066;48.764;9.176;2022-08-25T02:28:22;7.13;;;4.60;;
549;SDS011;20066;48.764;9.176;2022-08-25T02:30:50;6.80;;;4.00;;
549;SDS011;20066;48.764;9.176;2022-08-25T02:33:26;7.93;;;4.40;;
549;SDS011;20066;48.764;9.176;2022-08-25T02:35:55;8.97;;;4.80;;
549;SDS011;20066;48.764;9.176;2022-08-25T02:38:24;9.00;;;4.40;;
549;SDS011;20066;48.764;9.176;2022-08-25T02:40:54;6.53;;;4.10;;
549;SDS011;20066;48.764;9.176;2022-08-25T02:43:22;7.30;;;4.53;;
549;SDS011;20066;48.764;9.176;2022-08-25T02:45:51;9.50;;;4.53;;
549;SDS011;20066;48.764;9.176;2022-08-25T02:48:19;8.33;;;4.33;;
549;SDS011;20066;48.764;9.176;2022-08-25T02:50:47;5.50;;;3.87;;
549;SDS011;20066;48.764;9.176;2022-08-25T02:53:17;6.63;;;4.10;;
549;SDS011;20066;48.764;9.176;2022-08-25T02:55:46;6.80;;;4.37;;
549;SDS011;20066;48.764;9.176;2022-08-25T02:58:15;6.97;;;5.00;;
549;SDS011;20066;48.764;9.176;2022-08-25T03:00:43;7.13;;;4.60;;
549;SDS011;20066;48.764;9.176;2022-08-25T03:03:12;7.20;;;4.47;;
549;SDS011;20066;48.764;9.176;2022-08-25T03:05:39;6.97;;;4.57;;
549;SDS011;20066;48.764;9.176;2022-08-25T03:08:07;7.00;;;4.93;;
549;SDS011;20066;48.764;9.176;2022-08-25T03:10:36;6.90;;;4.67;;
549;SDS011;20066;48.764;9.176;2022-08-25T03:13:04;12.10;;;4.70;;
549;SDS011;20066;48.764;9.176;2022-08-25T03:15:33;6.50;;;4.50;;
549;SDS011;20066;48.764;9.176;2022-08-25T03:18:03;10.23;;;4.93;;
549;SDS011;20066;48.764;9.176;2022-08-25T03:20:34;7.77;;;4.60;;
549;SDS011;20066;48.764;9.176;2022-08-25T03:23:02;6.23;;;4.40;;
549;SDS011;20066;48.764;9.176;2022-08-25T03:25:30;6.53;;;4.23;;
549;SDS011;20066;48.764;9.176;2022-08-25T03:28:15;6.97;;;4.00;;
549;SDS011;20066;48.764;9.176;2022-08-25T03:30:51;6.53;;;4.53;;
549;SDS011;20066;48.764;9.176;2022-08-25T03:33:21;10.23;;;4.90;;
549;SDS011;20066;48.764;9.176;2022-08-25T03:35:49;7.87;;;4.60;;
549;SDS011;20066;48.764;9.176;2022-08-25T03:38:17;7.90;;;4.90;;
549;SDS011;20066;48.764;9.176;2022-08-25T03:40:44;7.40;;;4.73;;
549;SDS011;20066;48.764;9.176;2022-08-25T03:43:12;9.00;;;4.43;;
549;SDS011;20066;48.764;9.176;2022-08-25T03:45:40;7.70;;;5.33;;
549;SDS011;20066;48.764;9.176;2022-08-25T03:48:10;9.90;;;4.80;;
549;SDS011;20066;48.764;9.176;2022-08-25T03:50:42;9.40;;;4.73;;
549;SDS011;20066;48.764;9.176;2022-08-25T03:53:17;7.13;;;4.60;;
549;SDS011;20066;48.764;9.176;2022-08-25T03:55:45;7.07;;;4.43;;
549;SDS011;20066;48.764;9.176;2022-08-25T03:58:13;7.30;;;5.30;;
549;SDS011;20066;48.764;9.176;2022-08-25T04:00:43;8.10;;;5.30;;
549;SDS011;20066;48.764;9.176;2022-08-25T04:03:12;7.37;;;4.60;;
549;SDS011;20066;48.764;9.176;2022-08-25T04:05:40;8.93;;;5.00;;
549;SDS011;20066;48.764;9.176;2022-08-25T04:08:08;10.93;;;4.57;;
549;SDS011;20066;48.764;9.176;2022-08-25T04:10:36;7.43;;;4.60;;
549;SDS011;20066;48.764;9.176;2022-08-25T04:13:04;8.80;;;4.70;;
549;SDS011;20066;48.764;9.176;2022-08-25T04:15:31;7.53;;;4.53;;
549;SDS011;20066;48.764;9.176;2022-08-25T04:17:59;9.40;;;4.73;;
549;SDS011;20066;48.764;9.176;2022-08-25T04:20:28;9.17;;;5.00;;
549;SDS011;20066;48.764;9.176;2022-08-25T04:22:56;7.93;;;4.97;;
549;SDS011;20066;48.764;9.176;2022-08-25T04:25:26;8.90;;;4.87;;
549;SDS011;20066;48.764;9.176;2022-08-25T04:27:54;8.73;;;4.60;;
549;SDS011;20066;48.764;9.176;2022-08-25T04:30:22;9.53;;;5.60;;
549;SDS011;20066;48.764;9.176;2022-08-25T04:32:50;10.23;;;5.77;;
549;SDS011;20066;48.764;9.176;2022-08-25T04:35:17;9.10;;;5.03;;
549;SDS011;20066;48.764;9.176;2022-08-25T04:37:47;7.07;;;4.50;;
549;SDS011;20066;48.764;9.176;2022-08-25T04:40:15;10.93;;;4.60;;
549;SDS011;20066;48.764;9.176;2022-08-25T04:42:43;9.40;;;5.87;;
549;SDS011;20066;48.764;9.176;2022-08-25T04:45:13;9.63;;;5.67;;
549;SDS011;20066;48.764;9.176;2022-08-25T04:47:41;8.97;;;5.73;;
549;SDS011;20066;48.764;9.176;2022-08-25T04:50:09;9.33;;;5.40;;
549;SDS011;20066;48.764;9.176;2022-08-25T04:52:36;11.63;;;6.10;;
549;SDS011;20066;48.764;9.176;2022-08-25T04:55:06;9.57;;;4.90;;
549;SDS011;20066;48.764;9.176;2022-08-25T04:57:34;9.30;;;5.20;;
549;SDS011;20066;48.764;9.176;2022-08-25T05:00:03;8.63;;;5.27;;
549;SDS011;20066;48.764;9.176;2022-08-25T05:02:31;9.23;;;5.20;;
549;SDS011;20066;48.764;9.176;2022-08-25T05:04:59;9.40;;;5.37;;
549;SDS011;20066;48.764;9.176;2022-08-25T05:07:29;9.57;;;5.07;;
549;SDS011;20066;48.764;9.176;2022-08-25T05:09:57;9.00;;;5.40;;
549;SDS011;20066;48.764;9.176;2022-08-25T05:12:26;8.37;;;5.20;;
549;SDS011;20066;48.764;9.176;2022-08-25T05:14:54;8.80;;;5.47;;
549;SDS011;20066;48.764;9.176;2022-08-25T05:17:42;9.67;;;6.00;;
549;SDS011;20066;48.764;9.176;2022-08-25T05:20:09;7.77;;;5.13;;
549;SDS011;20066;48.764;9.176;2022-08-25T05:22:37;10.47;;;5.00;;
549;SDS011;20066;48.764;9.176;2022-08-25T05:25:06;9.77;;;5.70;;
549;SDS011;20066;48.764;9.176;2022-08-25T05:27:36;8.60;;;5.20;;
549;SDS011;20066;48.764;9.176;2022-08-25T05:30:04;9.50;;;5.73;;
549;SDS011;20066;48.764;9.176;2022-08-25T05:32:33;9.33;;;6.17;;
549;SDS011;20066;48.764;9.176;2022-08-25T05:35:01;12.80;;;6.43;;
549;SDS011;20066;48.764;9.176;2022-08-25T05:37:28;10.70;;;6.37;;
549;SDS011;20066;48.764;9.176;2022-08-25T05:39:56;9.50;;;6.50;;
549;SDS011;20066;48.764;9.176;2022-08-25T05:42:24;9.67;;;5.77;;
549;SDS011;20066;48.764;9.176;2022-08-25T05:44:54;11.73;;;6.87;;
549;SDS011;20066;48.764;9.176;2022-08-25T05:47:22;9.33;;;6.27;;
549;SDS011;20066;48.764;9.176;2022-08-25T05:49:50;12.63;;;6.70;;
549;SDS011;20066;48.764;9.176;2022-08-25T05:52:18;14.80;;;6.57;;
549;SDS011;20066;48.764;9.176;2022-08-25T05:54:45;11.87;;;6.30;;
549;SDS011;20066;48.764;9.176;2022-08-25T05:57:13;9.50;;;6.10;;
549;SDS011;20066;48.764;9.176;2022-08-25T05:59:42;14.83;;;6.17;;
549;SDS011;20066;48.764;9.176;2022-08-25T06:02:11;11.37;;;6.27;;
549;SDS011;20066;48.764;9.176;2022-08-25T06:04:56;12.90;;;6.90;;
549;SDS011;20066;48.764;9.176;2022-08-25T06:07:24;10.03;;;6.07;;
549;SDS011;20066;48.764;9.176;2022-08-25T06:09:52;11.30;;;6.90;;
549;SDS011;20066;48.764;9.176;2022-08-25T06:12:20;11.67;;;7.40;;
549;SDS011;20066;48.764;9.176;2022-08-25T06:14:48;11.90;;;7.27;;
549;SDS011;20066;48.764;9.176;2022-08-25T06:17:17;11.93;;;7.53;;
549;SDS011;20066;48.764;9.176;2022-08-25T06:19:45;12.43;;;7.40;;
549;SDS011;20066;48.764;9.176;2022-08-25T06:22:12;10.10;;;6.80;;
549;SDS011;20066;48.764;9.176;2022-08-25T06:24:40;13.40;;;6.77;;
549;SDS011;20066;48.764;9.176;2022-08-25T06:27:08;22.80;;;7.97;;
549;SDS011;20066;48.764;9.176;2022-08-25T06:29:35;17.67;;;8.20;;
549;SDS011;20066;48.764;9.176;2022-08-25T06:32:03;15.60;;;8.17;;
549;SDS011;20066;48.764;9.176;2022-08-25T06:34:33;13.70;;;7.33;;
549;SDS011;20066;48.764;9.176;2022-08-25T06:37:01;16.07;;;8.00;;
549;SDS011;20066;48.764;9.176;2022-08-25T06:39:28;15.90;;;7.97;;
549;SDS011;20066;48.764;9.176;2022-08-25T06:41:56;13.80;;;8.27;;
549;SDS011;20066;48.764;9.176;2022-08-25T06:44:24;13.30;;;7.83;;
549;SDS011;20066;48.764;9.176;2022-08-25T06:46:53;16.40;;;7.80;;
549;SDS011;20066;48.764;9.176;2022-08-25T06:49:21;13.97;;;7.87;;
549;SDS011;20066;48.764;9.176;2022-08-25T06:51:54;15.17;;;7.97;;
549;SDS011;20066;48.764;9.176;2022-08-25T06:54:21;16.57;;;7.77;;
549;SDS011;20066;48.764;9.176;2022-08-25T06:56:49;13.00;;;7.50;;
549;SDS011;20066;48.764;9.176;2022-08-25T06:59:17;15.27;;;8.20;;
549;SDS011;20066;48.764;9.176;2022-08-25T07:01:45;17.97;;;8.40;;
549;SDS011;20066;48.764;9.176;2022-08-25T07:04:15;16.87;;;8.43;;
549;SDS011;20066;48.764;9.176;2022-08-25T07:06:43;14.13;;;8.57;;
549;SDS011;20066;48.764;9.176;2022-08-25T07:09:12;13.83;;;7.77;;
549;SDS011;20066;48.764;9.176;2022-08-25T07:11:41;15.03;;;7.00;;
549;SDS011;20066;48.764;9.176;2022-08-25T07:14:11;16.30;;;8.20;;
549;SDS011;20066;48.764;9.176;2022-08-25T07:16:40;17.60;;;7.90;;
549;SDS011;20066;48.764;9.176;2022-08-25T07:19:14;14.20;;;7.27;;
549;SDS011;20066;48.764;9.176;2022-08-25T07:21:46;13.40;;;7.90;;
549;SDS011;20066;48.764;9.176;2022-08-25T07:24:18;14.60;;;8.43;;
549;SDS011;20066;48.764;9.176;2022-08-25T07:26:46;11.30;;;7.00;;
549;SDS011;20066;48.764;9.176;2022-08-25T07:29:15;14.40;;;7.30;;
549;SDS011;20066;48.764;9.176;2022-08-25T07:31:57;14.30;;;8.03;;
549;SDS011;20066;48.764;9.176;2022-08-25T07:34:25;16.83;;;7.43;;
549;SDS011;20066;48.764;9.176;2022-08-25T07:37:17;22.00;;;7.70;;
549;SDS011;20066;48.764;9.176;2022-08-25T07:40:09;14.17;;;6.70;;
549;SDS011;20066;48.764;9.176;2022-08-25T07:42:39;10.97;;;6.87;;
549;SDS011;20066;48.764;9.176;2022-08-25T07:45:08;11.33;;;6.67;;
549;SDS011;20066;48.764;9.176;2022-08-25T07:47:37;10.70;;;6.60;;
549;SDS011;20066;48.764;9.176;2022-08-25T07:50:07;13.00;;;6.93;;
549;SDS011;20066;48.764;9.176;2022-08-25T07:52:37;10.57;;;6.90;;
549;SDS011;20066;48.764;9.176;2022-08-25T07:55:05;11.20;;;7.20;;
549;SDS011;20066;48.764;9.176;2022-08-25T07:57:39;10.97;;;6.60;;
549;SDS011;20066;48.764;9.176;2022-08-25T08:00:08;14.53;;;7.10;;
549;SDS011;20066;48.764;9.176;2022-08-25T08:02:37;11.80;;;7.00;;
549;SDS011;20066;48.764;9.176;2022-08-25T08:05:06;15.10;;;7.77;;
549;SDS011;20066;48.764;9.176;2022-08-25T08:07:34;12.17;;;7.30;;
549;SDS011;20066;48.764;9.176;2022-08-25T08:10:09;11.07;;;6.03;;
549;SDS011;20066;48.764;9.176;2022-08-25T08:13:00;9.70;;;6.20;;
549;SDS011;20066;48.764;9.176;2022-08-25T08:15:28;10.40;;;6.27;;
549;SDS011;20066;48.764;9.176;2022-08-25T08:17:56;11.27;;;5.63;;
549;SDS011;20066;48.764;9.176;2022-08-25T08:20:25;12.20;;;5.90;;
549;SDS011;20066;48.764;9.176;2022-08-25T08:22:54;11.67;;;6.57;;
549;SDS011;20066;48.764;9.176;2022-08-25T08:25:22;8.97;;;6.20;;
549;SDS011;20066;48.764;9.176;2022-08-25T08:27:53;9.77;;;5.43;;
549;SDS011;20066;48.764;9.176;2022-08-25T08:30:23;8.87;;;5.70;;
549;SDS011;20066;48.764;9.176;2022-08-25T08:32:51;9.77;;;6.27;;
549;SDS011;20066;48.764;9.176;2022-08-25T08:35:37;9.80;;;5.80;;
549;SDS011;20066;48.764;9.176;2022-08-25T08:38:06;16.70;;;5.90;;
549;SDS011;20066;48.764;9.176;2022-08-25T08:40:43;9.20;;;5.70;;
549;SDS011;20066;48.764;9.176;2022-08-25T08:43:34;10.87;;;6.27;;
549;SDS011;20066;48.764;9.176;2022-08-25T08:46:06;11.90;;;6.50;;
549;SDS011;20066;48.764;9.176;2022-08-25T08:48:43;9.30;;;5.70;;
549;SDS011;20066;48.764;9.176;2022-08-25T08:51:22;9.37;;;5.73;;
549;SDS011;20066;48.764;9.176;2022-08-25T08:53:59;9.93;;;5.73;;
549;SDS011;20066;48.764;9.176;2022-08-25T08:56:41;10.50;;;5.40;;
549;SDS011;20066;48.764;9.176;2022-08-25T08:59:15;9.00;;;5.93;;
549;SDS011;20066;48.764;9.176;2022-08-25T09:01:48;9.80;;;5.60;;
549;SDS011;20066;48.764;9.176;2022-08-25T09:04:26;11.23;;;5.87;;
549;SDS011;20066;48.764;9.176;2022-08-25T09:06:59;7.60;;;5.50;;
549;SDS011;20066;48.764;9.176;2022-08-25T09:09:32;9.37;;;5.37;;
549;SDS011;20066;48.764;9.176;2022-08-25T09:12:03;7.53;;;5.37;;
549;SDS011;20066;48.764;9.176;2022-08-25T09:14:42;11.70;;;5.67;;
549;SDS011;20066;48.764;9.176;2022-08-25T09:17:24;8.93;;;5.73;;
549;SDS011;20066;48.764;9.176;2022-08-25T09:20:10;9.93;;;5.67;;
549;SDS011;20066;48.764;9.176;2022-08-25T09:22:55;8.00;;;5.70;;
549;SDS011;20066;48.764;9.176;2022-08-25T09:25:31;9.33;;;5.00;;
549;SDS011;20066;48.764;9.176;2022-08-25T09:28:24;8.90;;;5.40;;
549;SDS011;20066;48.764;9.176;2022-08-25T09:30:58;7.97;;;5.07;;
549;SDS011;20066;48.764;9.176;2022-08-25T09:33:31;7.23;;;4.60;;
549;SDS011;20066;48.764;9.176;2022-08-25T09:36:01;7.63;;;4.77;;
549;SDS011;20066;48.764;9.176;2022-08-25T09:38:34;9.87;;;5.57;;
549;SDS011;20066;48.764;9.176;2022-08-25T09:41:03;7.67;;;5.63;;
549;SDS011;20066;48.764;9.176;2022-08-25T09:43:32;8.47;;;5.37;;
549;SDS011;20066;48.764;9.176;2022-08-25T09:46:08;8.70;;;4.10;;
549;SDS011;20066;48.764;9.176;2022-08-25T09:48:46;7.90;;;5.47;;
549;SDS011;20066;48.764;9.176;2022-08-25T09:51:23;9.33;;;4.50;;
549;SDS011;20066;48.764;9.176;2022-08-25T09:53:53;10.93;;;4.93;;
549;SDS011;20066;48.764;9.176;2022-08-25T09:56:23;8.10;;;5.80;;
549;SDS011;20066;48.764;9.176;2022-08-25T09:58:53;9.97;;;5.60;;
549;SDS011;20066;48.764;9.176;2022-08-25T10:01:28;8.57;;;5.03;;
549;SDS011;20066;48.764;9.176;2022-08-25T10:04:02;7.87;;;5.17;;
549;SDS011;20066;48.764;9.176;2022-08-25T10:06:34;8.00;;;5.03;;
549;SDS011;20066;48.764;9.176;2022-08-25T10:09:12;8.17;;;5.43;;
549;SDS011;20066;48.764;9.176;2022-08-25T10:11:55;7.60;;;4.87;;
549;SDS011;20066;48.764;9.176;2022-08-25T10:14:28;8.17;;;5.20;;
549;SDS011;20066;48.764;9.176;2022-08-25T10:17:11;7.73;;;5.07;;
549;SDS011;20066;48.764;9.176;2022-08-25T10:19:42;8.40;;;5.20;;
549;SDS011;20066;48.764;9.176;2022-08-25T10:22:11;8.83;;;5.57;;
549;SDS011;20066;48.764;9.176;2022-08-25T10:24:50;8.43;;;4.97;;
549;SDS011;20066;48.764;9.176;2022-08-25T10:27:22;15.00;;;5.67;;
549;SDS011;20066;48.764;9.176;2022-08-25T10:30:03;11.53;;;5.37;;
549;SDS011;20066;48.764;9.176;2022-08-25T10:32:49;7.97;;;5.07;;
549;SDS011;20066;48.764;9.176;2022-08-25T10:35:41;8.40;;;5.13;;
549;SDS011;20066;48.764;9.176;2022-08-25T10:38:19;6.40;;;4.60;;
549;SDS011;20066;48.764;9.176;2022-08-25T10:41:03;8.77;;;4.90;;
549;SDS011;20066;48.764;9.176;2022-08-25T10:43:52;7.90;;;5.00;;
549;SDS011;20066;48.764;9.176;2022-08-25T10:46:29;10.97;;;4.73;;
549;SDS011;20066;48.764;9.176;2022-08-25T10:49:06;6.80;;;4.73;;
549;SDS011;20066;48.764;9.176;2022-08-25T10:51:51;8.53;;;5.00;;
549;SDS011;20066;48.764;9.176;2022-08-25T10:54:28;7.77;;;4.60;;
549;SDS011;20066;48.764;9.176;2022-08-25T10:57:08;9.90;;;4.20;;
549;SDS011;20066;48.764;9.176;2022-08-25T10:59:49;9.80;;;4.90;;
549;SDS011;20066;48.764;9.176;2022-08-25T11:05:25;7.43;;;4.00;;
549;SDS011;20066;48.764;9.176;2022-08-25T11:08:02;7.33;;;4.20;;
549;SDS011;20066;48.764;9.176;2022-08-25T11:10:41;9.73;;;4.13;;
549;SDS011;20066;48.764;9.176;2022-08-25T11:13:17;10.40;;;4.70;;
549;SDS011;20066;48.764;9.176;2022-08-25T11:15:51;7.33;;;4.07;;
549;SDS011;20066;48.764;9.176;2022-08-25T11:18:44;6.30;;;3.90;;
549;SDS011;20066;48.764;9.176;2022-08-25T11:21:18;7.10;;;3.93;;
549;SDS011;20066;48.764;9.176;2022-08-25T11:23:51;6.37;;;3.97;;
549;SDS011;20066;48.764;9.176;2022-08-25T11:26:25;8.47;;;4.10;;
549;SDS011;20066;48.764;9.176;2022-08-25T11:29:03;5.37;;;3.40;;
549;SDS011;20066;48.764;9.176;2022-08-25T11:31:37;8.43;;;3.43;;
549;SDS011;20066;48.764;9.176;2022-08-25T11:34:12;13.00;;;4.57;;
549;SDS011;20066;48.764;9.176;2022-08-25T11:36:48;5.53;;;3.70;;
549;SDS011;20066;48.764;9.176;2022-08-25T11:39:23;5.90;;;3.87;;
549;SDS011;20066;48.764;9.176;2022-08-25T11:42:04;5.20;;;3.40;;
549;SDS011;20066;48.764;9.176;2022-08-25T11:44:45;7.80;;;4.37;;
549;SDS011;20066;48.764;9.176;2022-08-25T11:47:25;6.70;;;4.10;;
549;SDS011;20066;48.764;9.176;2022-08-25T11:50:04;5.07;;;2.73;;
549;SDS011;20066;48.764;9.176;2022-08-25T11:52:41;4.73;;;2.97;;
549;SDS011;20066;48.764;9.176;2022-08-25T11:55:18;6.60;;;3.60;;
549;SDS011;20066;48.764;9.176;2022-08-25T11:57:49;5.20;;;3.70;;
549;SDS011;20066;48.764;9.176;2022-08-25T12:00:35;5.80;;;3.70;;
549;SDS011;20066;48.764;9.176;2022-08-25T12:06:18;5.10;;;3.23;;
549;SDS011;20066;48.764;9.176;2022-08-25T12:08:52;5.83;;;3.30;;
549;SDS011;20066;48.764;9.176;2022-08-25T12:11:43;5.23;;;3.93;;
549;SDS011;20066;48.764;9.176;2022-08-25T12:14:15;5.33;;;3.73;;
549;SDS011;20066;48.764;9.176;2022-08-25T12:17:11;5.03;;;3.80;;
549;SDS011;20066;48.764;9.176;2022-08-25T12:20:04;5.23;;;3.70;;
549;SDS011;20066;48.764;9.176;2022-08-25T12:22:53;5.17;;;3.73;;
549;SDS011;20066;48.764;9.176;2022-08-25T12:25:27;7.10;;;3.57;;
549;SDS011;20066;48.764;9.176;2022-08-25T12:28:02;5.63;;;4.10;;
549;SDS011;20066;48.764;9.176;2022-08-25T12:30:38;7.77;;;3.53;;
549;SDS011;20066;48.764;9.176;2022-08-25T12:33:18;5.47;;;3.57;;
549;SDS011;20066;48.764;9.176;2022-08-25T12:35:55;5.93;;;3.70;;
549;SDS011;20066;48.764;9.176;2022-08-25T12:38:27;4.50;;;3.53;;
549;SDS011;20066;48.764;9.176;2022-08-25T12:41:00;6.80;;;3.97;;
549;SDS011;20066;48.764;9.176;2022-08-25T12:43:34;5.87;;;3.87;;
549;SDS011;20066;48.764;9.176;2022-08-25T12:49:02;6.23;;;4.00;;
549;SDS011;20066;48.764;9.176;2022-08-25T12:51:44;4.70;;;3.63;;
549;SDS011;20066;48.764;9.176;2022-08-25T12:54:17;4.93;;;3.27;;
549;SDS011;20066;48.764;9.176;2022-08-25T12:56:52;4.03;;;2.90;;
549;SDS011;20066;48.764;9.176;2022-08-25T12:59:30;4.07;;;2.90;;
549;SDS011;20066;48.764;9.176;2022-08-25T13:02:07;5.43;;;3.50;;
549;SDS011;20066;48.764;9.176;2022-08-25T13:05:36;9.80;;;3.70;;
549;SDS011;20066;48.764;9.176;2022-08-25T13:08:25;5.07;;;3.57;;
549;SDS011;20066;48.764;9.176;2022-08-25T13:11:12;9.50;;;3.40;;
549;SDS011;20066;48.764;9.176;2022-08-25T13:13:47;8.07;;;3.70;;
549;SDS011;20066;48.764;9.176;2022-08-25T13:16:23;5.00;;;3.50;;
549;SDS011;20066;48.764;9.176;2022-08-25T13:18:55;4.87;;;3.57;;
549;SDS011;20066;48.764;9.176;2022-08-25T13:21:27;8.40;;;3.20;;
549;SDS011;20066;48.764;9.176;2022-08-25T13:24:00;10.33;;;3.67;;
549;SDS011;20066;48.764;9.176;2022-08-25T13:26:32;5.37;;;3.70;;
549;SDS011;20066;48.764;9.176;2022-08-25T13:29:15;6.33;;;3.57;;
549;SDS011;20066;48.764;9.176;2022-08-25T13:31:52;6.53;;;4.17;;
549;SDS011;20066;48.764;9.176;2022-08-25T13:34:24;6.80;;;4.20;;
549;SDS011;20066;48.764;9.176;2022-08-25T13:37:04;5.67;;;3.50;;
549;SDS011;20066;48.764;9.176;2022-08-25T13:39:50;4.67;;;3.53;;
549;SDS011;20066;48.764;9.176;2022-08-25T13:42:36;4.83;;;3.40;;
549;SDS011;20066;48.764;9.176;2022-08-25T13:45:08;4.20;;;3.40;;
549;SDS011;20066;48.764;9.176;2022-08-25T13:47:42;7.60;;;3.90;;
549;SDS011;20066;48.764;9.176;2022-08-25T13:50:14;7.33;;;3.90;;
549;SDS011;20066;48.764;9.176;2022-08-25T13:52:46;7.20;;;3.93;;
549;SDS011;20066;48.764;9.176;2022-08-25T13:55:19;6.10;;;4.33;;
549;SDS011;20066;48.764;9.176;2022-08-25T13:57:54;6.10;;;4.10;;
549;SDS011;20066;48.764;9.176;2022-08-25T14:00:24;5.23;;;3.73;;
549;SDS011;20066;48.764;9.176;2022-08-25T14:02:59;5.50;;;3.63;;
549;SDS011;20066;48.764;9.176;2022-08-25T14:05:39;4.77;;;3.47;;
549;SDS011;20066;48.764;9.176;2022-08-25T14:08:25;6.07;;;3.80;;
549;SDS011;20066;48.764;9.176;2022-08-25T14:11:01;5.23;;;4.00;;
549;SDS011;20066;48.764;9.176;2022-08-25T14:13:40;5.50;;;3.90;;
549;SDS011;20066;48.764;9.176;2022-08-25T14:16:11;7.23;;;3.57;;
549;SDS011;20066;48.764;9.176;2022-08-25T14:18:46;6.27;;;3.80;;
549;SDS011;20066;48.764;9.176;2022-08-25T14:21:17;6.73;;;3.50;;
549;SDS011;20066;48.764;9.176;2022-08-25T14:23:48;4.77;;;3.20;;
549;SDS011;20066;48.764;9.176;2022-08-25T14:26:18;10.37;;;3.43;;
549;SDS011;20066;48.764;9.176;2022-08-25T14:28:46;4.90;;;3.20;;
549;SDS011;20066;48.764;9.176;2022-08-25T14:31:16;4.27;;;3.13;;
549;SDS011;20066;48.764;9.176;2022-08-25T14:33:53;5.73;;;3.27;;
549;SDS011;20066;48.764;9.176;2022-08-25T14:36:24;5.57;;;3.90;;
549;SDS011;20066;48.764;9.176;2022-08-25T14:38:54;6.27;;;4.40;;
549;SDS011;20066;48.764;9.176;2022-08-25T14:41:23;5.70;;;4.00;;
549;SDS011;20066;48.764;9.176;2022-08-25T14:43:51;8.50;;;4.00;;
549;SDS011;20066;48.764;9.176;2022-08-25T14:46:20;4.93;;;3.80;;
549;SDS011;20066;48.764;9.176;2022-08-25T14:48:53;5.73;;;3.90;;
549;SDS011;20066;48.764;9.176;2022-08-25T14:51:24;5.57;;;3.80;;
549;SDS011;20066;48.764;9.176;2022-08-25T14:53:56;8.30;;;3.93;;
549;SDS011;20066;48.764;9.176;2022-08-25T14:56:27;4.90;;;3.67;;
549;SDS011;20066;48.764;9.176;2022-08-25T14:58:56;5.80;;;4.00;;
549;SDS011;20066;48.764;9.176;2022-08-25T15:01:25;6.73;;;4.03;;
549;SDS011;20066;48.764;9.176;2022-08-25T15:03:58;4.63;;;3.60;;
549;SDS011;20066;48.764;9.176;2022-08-25T15:06:29;5.07;;;3.77;;
549;SDS011;20066;48.764;9.176;2022-08-25T15:08:59;6.70;;;4.00;;
549;SDS011;20066;48.764;9.176;2022-08-25T15:11:37;4.70;;;3.60;;
549;SDS011;20066;48.764;9.176;2022-08-25T15:14:07;6.03;;;3.93;;
549;SDS011;20066;48.764;9.176;2022-08-25T15:16:38;10.00;;;3.80;;
549;SDS011;20066;48.764;9.176;2022-08-25T15:19:10;7.30;;;3.83;;
549;SDS011;20066;48.764;9.176;2022-08-25T15:21:42;9.10;;;4.47;;
549;SDS011;20066;48.764;9.176;2022-08-25T15:24:12;6.47;;;4.20;;
549;SDS011;20066;48.764;9.176;2022-08-25T15:26:43;7.27;;;4.80;;
549;SDS011;20066;48.764;9.176;2022-08-25T15:29:21;5.00;;;3.70;;
549;SDS011;20066;48.764;9.176;2022-08-25T15:31:49;7.07;;;4.50;;
549;SDS011;20066;48.764;9.176;2022-08-25T15:34:19;7.40;;;4.80;;
549;SDS011;20066;48.764;9.176;2022-08-25T15:36:47;6.10;;;4.03;;
549;SDS011;20066;48.764;9.176;2022-08-25T15:39:15;11.37;;;4.00;;
549;SDS011;20066;48.764;9.176;2022-08-25T15:41:44;8.73;;;4.33;;
549;SDS011;20066;48.764;9.176;2022-08-25T15:44:14;6.60;;;4.60;;
549;SDS011;20066;48.764;9.176;2022-08-25T15:46:42;5.40;;;4.00;;
549;SDS011;20066;48.764;9.176;2022-08-25T15:49:15;5.70;;;4.17;;
549;SDS011;20066;48.764;9.176;2022-08-25T15:51:50;5.63;;;4.10;;
549;SDS011;20066;48.764;9.176;2022-08-25T15:54:19;8.00;;;3.87;;